sensor_id;sensor_type;location;lat;lon;timestamp;P1;durP1;ratioP1;P2;durP2;ratioP2
25511;SDS011;13414;44.534;18.700;2022-12-22T00:02:01;408.10;;;243.48;;
25511;SDS011;13414;44.534;18.700;2022-12-22T00:04:47;421.58;;;250.68;;
25511;SDS011;13414;44.534;18.700;2022-12-22T00:07:33;444.33;;;263.43;;
25511;SDS011;13414;44.534;18.700;2022-12-22T00:10:19;442.85;;;268.27;;
25511;SDS011;13414;44.534;18.700;2022-12-22T00:13:04;445.23;;;268.65;;
25511;SDS011;13414;44.534;18.700;2022-12-22T00:15:52;459.30;;;279.25;;
25511;SDS011;13414;44.534;18.700;2022-12-22T00:18:37;475.75;;;280.50;;
25511;SDS011;13414;44.534;18.700;2022-12-22T00:21:22;470.85;;;277.27;;
25511;SDS011;13414;44.534;18.700;2022-12-22T00:24:07;466.77;;;274.80;;
25511;SDS011;13414;44.534;18.700;2022-12-22T00:26:53;468.25;;;283.20;;
25511;SDS011;13414;44.534;18.700;2022-12-22T00:29:39;457.95;;;269.30;;
25511;SDS011;13414;44.534;18.700;2022-12-22T00:32:25;441.35;;;268.75;;
25511;SDS011;13414;44.534;18.700;2022-12-22T00:35:15;443.48;;;262.55;;
25511;SDS011;13414;44.534;18.700;2022-12-22T00:38:03;430.92;;;256.52;;
25511;SDS011;13414;44.534;18.700;2022-12-22T00:40:55;398.70;;;238.40;;
25511;SDS011;13414;44.534;18.700;2022-12-22T00:43:41;390.80;;;232.20;;
25511;SDS011;13414;44.534;18.700;2022-12-22T00:46:26;338.95;;;204.77;;
25511;SDS011;13414;44.534;18.700;2022-12-22T00:49:11;344.02;;;206.50;;
25511;SDS011;13414;44.534;18.700;2022-12-22T00:51:56;321.52;;;196.02;;
25511;SDS011;13414;44.534;18.700;2022-12-22T00:54:41;299.20;;;172.38;;
25511;SDS011;13414;44.534;18.700;2022-12-22T00:57:26;357.85;;;214.85;;
25511;SDS011;13414;44.534;18.700;2022-12-22T01:00:15;288.90;;;167.20;;
25511;SDS011;13414;44.534;18.700;2022-12-22T01:03:00;284.65;;;161.73;;
25511;SDS011;13414;44.534;18.700;2022-12-22T01:05:45;324.35;;;194.27;;
25511;SDS011;13414;44.534;18.700;2022-12-22T01:08:31;310.67;;;181.38;;
25511;SDS011;13414;44.534;18.700;2022-12-22T01:11:16;319.50;;;184.70;;
25511;SDS011;13414;44.534;18.700;2022-12-22T01:14:01;303.60;;;175.00;;
25511;SDS011;13414;44.534;18.700;2022-12-22T01:16:48;293.15;;;169.95;;
25511;SDS011;13414;44.534;18.700;2022-12-22T01:19:33;279.73;;;162.73;;
25511;SDS011;13414;44.534;18.700;2022-12-22T01:22:18;294.67;;;168.77;;
25511;SDS011;13414;44.534;18.700;2022-12-22T01:25:08;326.38;;;190.98;;
25511;SDS011;13414;44.534;18.700;2022-12-22T01:27:55;329.00;;;193.63;;
25511;SDS011;13414;44.534;18.700;2022-12-22T01:30:40;295.63;;;171.00;;
25511;SDS011;13414;44.534;18.700;2022-12-22T01:33:26;245.75;;;144.02;;
25511;SDS011;13414;44.534;18.700;2022-12-22T01:36:11;275.52;;;159.35;;
25511;SDS011;13414;44.534;18.700;2022-12-22T01:38:56;296.33;;;169.57;;
25511;SDS011;13414;44.534;18.700;2022-12-22T01:41:41;302.70;;;173.20;;
25511;SDS011;13414;44.534;18.700;2022-12-22T01:44:27;301.73;;;176.80;;
25511;SDS011;13414;44.534;18.700;2022-12-22T01:47:31;302.70;;;176.63;;
25511;SDS011;13414;44.534;18.700;2022-12-22T01:50:20;301.17;;;175.90;;
25511;SDS011;13414;44.534;18.700;2022-12-22T01:53:13;289.23;;;160.65;;
25511;SDS011;13414;44.534;18.700;2022-12-22T01:56:02;313.55;;;179.43;;
25511;SDS011;13414;44.534;18.700;2022-12-22T01:58:48;212.80;;;125.18;;
25511;SDS011;13414;44.534;18.700;2022-12-22T02:01:35;240.20;;;141.60;;
25511;SDS011;13414;44.534;18.700;2022-12-22T02:04:22;273.20;;;153.02;;
25511;SDS011;13414;44.534;18.700;2022-12-22T02:07:15;270.73;;;157.65;;
25511;SDS011;13414;44.534;18.700;2022-12-22T02:10:12;282.60;;;166.60;;
25511;SDS011;13414;44.534;18.700;2022-12-22T02:13:14;275.35;;;163.32;;
25511;SDS011;13414;44.534;18.700;2022-12-22T02:16:07;282.58;;;165.15;;
25511;SDS011;13414;44.534;18.700;2022-12-22T02:18:59;275.35;;;161.07;;
25511;SDS011;13414;44.534;18.700;2022-12-22T02:21:55;296.48;;;171.02;;
25511;SDS011;13414;44.534;18.700;2022-12-22T02:24:50;279.30;;;165.20;;
25511;SDS011;13414;44.534;18.700;2022-12-22T02:27:42;276.08;;;165.07;;
25511;SDS011;13414;44.534;18.700;2022-12-22T02:30:30;253.35;;;149.25;;
25511;SDS011;13414;44.534;18.700;2022-12-22T02:33:15;247.88;;;139.90;;
25511;SDS011;13414;44.534;18.700;2022-12-22T02:36:02;234.93;;;140.98;;
25511;SDS011;13414;44.534;18.700;2022-12-22T02:38:57;257.67;;;146.93;;
25511;SDS011;13414;44.534;18.700;2022-12-22T02:41:52;280.38;;;160.00;;
25511;SDS011;13414;44.534;18.700;2022-12-22T02:44:50;269.75;;;151.88;;
25511;SDS011;13414;44.534;18.700;2022-12-22T02:47:46;264.80;;;152.73;;
25511;SDS011;13414;44.534;18.700;2022-12-22T02:50:33;259.45;;;154.23;;
25511;SDS011;13414;44.534;18.700;2022-12-22T02:53:22;265.77;;;158.85;;
25511;SDS011;13414;44.534;18.700;2022-12-22T02:56:08;263.20;;;151.63;;
25511;SDS011;13414;44.534;18.700;2022-12-22T02:58:53;261.65;;;153.52;;
25511;SDS011;13414;44.534;18.700;2022-12-22T03:01:40;261.05;;;151.13;;
25511;SDS011;13414;44.534;18.700;2022-12-22T03:04:27;243.60;;;143.07;;
25511;SDS011;13414;44.534;18.700;2022-12-22T03:07:12;219.98;;;131.65;;
25511;SDS011;13414;44.534;18.700;2022-12-22T03:09:57;226.45;;;131.85;;
25511;SDS011;13414;44.534;18.700;2022-12-22T03:12:42;203.43;;;118.30;;
25511;SDS011;13414;44.534;18.700;2022-12-22T03:15:27;218.60;;;125.20;;
25511;SDS011;13414;44.534;18.700;2022-12-22T03:18:13;245.95;;;143.55;;
25511;SDS011;13414;44.534;18.700;2022-12-22T03:20:58;234.25;;;138.07;;
25511;SDS011;13414;44.534;18.700;2022-12-22T03:23:43;247.93;;;141.02;;
25511;SDS011;13414;44.534;18.700;2022-12-22T03:26:29;234.95;;;134.50;;
25511;SDS011;13414;44.534;18.700;2022-12-22T03:28:57;226.63;;;134.23;;
25511;SDS011;13414;44.534;18.700;2022-12-22T03:31:25;234.73;;;138.23;;
25511;SDS011;13414;44.534;18.700;2022-12-22T03:33:54;235.60;;;137.55;;
25511;SDS011;13414;44.534;18.700;2022-12-22T03:36:21;224.25;;;135.50;;
25511;SDS011;13414;44.534;18.700;2022-12-22T03:38:48;233.63;;;141.45;;
25511;SDS011;13414;44.534;18.700;2022-12-22T03:41:16;226.35;;;132.98;;
25511;SDS011;13414;44.534;18.700;2022-12-22T03:43:57;217.02;;;125.30;;
25511;SDS011;13414;44.534;18.700;2022-12-22T03:46:42;185.57;;;111.88;;
25511;SDS011;13414;44.534;18.700;2022-12-22T03:49:11;172.05;;;104.00;;
25511;SDS011;13414;44.534;18.700;2022-12-22T03:51:40;175.45;;;104.45;;
25511;SDS011;13414;44.534;18.700;2022-12-22T03:54:09;174.88;;;106.45;;
25511;SDS011;13414;44.534;18.700;2022-12-22T03:56:37;172.93;;;105.32;;
25511;SDS011;13414;44.534;18.700;2022-12-22T03:59:05;179.82;;;106.50;;
25511;SDS011;13414;44.534;18.700;2022-12-22T04:01:33;175.75;;;107.45;;
25511;SDS011;13414;44.534;18.700;2022-12-22T04:04:04;176.75;;;107.80;;
25511;SDS011;13414;44.534;18.700;2022-12-22T04:06:33;183.07;;;111.18;;
25511;SDS011;13414;44.534;18.700;2022-12-22T04:09:00;170.20;;;106.45;;
25511;SDS011;13414;44.534;18.700;2022-12-22T04:11:28;177.68;;;107.20;;
25511;SDS011;13414;44.534;18.700;2022-12-22T04:14:12;182.15;;;112.82;;
25511;SDS011;13414;44.534;18.700;2022-12-22T04:16:40;177.98;;;108.03;;
25511;SDS011;13414;44.534;18.700;2022-12-22T04:19:08;174.43;;;104.45;;
25511;SDS011;13414;44.534;18.700;2022-12-22T04:21:37;168.95;;;103.50;;
25511;SDS011;13414;44.534;18.700;2022-12-22T04:24:04;165.60;;;98.82;;
25511;SDS011;13414;44.534;18.700;2022-12-22T04:26:32;161.15;;;95.55;;
25511;SDS011;13414;44.534;18.700;2022-12-22T04:29:00;142.00;;;88.75;;
25511;SDS011;13414;44.534;18.700;2022-12-22T04:31:27;144.18;;;86.97;;
25511;SDS011;13414;44.534;18.700;2022-12-22T04:33:55;136.75;;;81.10;;
25511;SDS011;13414;44.534;18.700;2022-12-22T04:36:22;136.13;;;84.82;;
25511;SDS011;13414;44.534;18.700;2022-12-22T04:38:51;151.35;;;89.35;;
25511;SDS011;13414;44.534;18.700;2022-12-22T04:41:18;142.27;;;87.57;;
25511;SDS011;13414;44.534;18.700;2022-12-22T04:43:46;141.63;;;84.13;;
25511;SDS011;13414;44.534;18.700;2022-12-22T04:46:13;149.02;;;87.68;;
25511;SDS011;13414;44.534;18.700;2022-12-22T04:48:40;130.15;;;77.05;;
25511;SDS011;13414;44.534;18.700;2022-12-22T04:51:08;122.47;;;73.88;;
25511;SDS011;13414;44.534;18.700;2022-12-22T04:53:35;129.00;;;80.15;;
25511;SDS011;13414;44.534;18.700;2022-12-22T04:56:05;137.10;;;84.22;;
25511;SDS011;13414;44.534;18.700;2022-12-22T04:58:33;141.68;;;84.18;;
25511;SDS011;13414;44.534;18.700;2022-12-22T05:01:06;130.32;;;80.72;;
25511;SDS011;13414;44.534;18.700;2022-12-22T05:03:35;119.65;;;72.82;;
25511;SDS011;13414;44.534;18.700;2022-12-22T05:06:03;116.68;;;70.80;;
25511;SDS011;13414;44.534;18.700;2022-12-22T05:08:31;119.63;;;72.40;;
25511;SDS011;13414;44.534;18.700;2022-12-22T05:10:58;118.20;;;74.47;;
25511;SDS011;13414;44.534;18.700;2022-12-22T05:13:28;125.70;;;76.47;;
25511;SDS011;13414;44.534;18.700;2022-12-22T05:16:01;123.50;;;77.30;;
25511;SDS011;13414;44.534;18.700;2022-12-22T05:18:30;154.45;;;94.22;;
25511;SDS011;13414;44.534;18.700;2022-12-22T05:20:58;150.23;;;94.25;;
25511;SDS011;13414;44.534;18.700;2022-12-22T05:23:28;161.07;;;99.00;;
25511;SDS011;13414;44.534;18.700;2022-12-22T05:25:56;155.15;;;95.45;;
25511;SDS011;13414;44.534;18.700;2022-12-22T05:28:23;162.68;;;99.07;;
25511;SDS011;13414;44.534;18.700;2022-12-22T05:30:52;149.23;;;91.57;;
25511;SDS011;13414;44.534;18.700;2022-12-22T05:33:20;160.32;;;97.25;;
25511;SDS011;13414;44.534;18.700;2022-12-22T05:35:47;153.98;;;92.28;;
25511;SDS011;13414;44.534;18.700;2022-12-22T05:38:14;151.38;;;95.65;;
25511;SDS011;13414;44.534;18.700;2022-12-22T05:40:42;147.63;;;89.22;;
25511;SDS011;13414;44.534;18.700;2022-12-22T05:43:09;156.30;;;92.03;;
25511;SDS011;13414;44.534;18.700;2022-12-22T05:45:36;154.13;;;98.63;;
25511;SDS011;13414;44.534;18.700;2022-12-22T05:48:06;161.95;;;97.65;;
25511;SDS011;13414;44.534;18.700;2022-12-22T05:50:33;163.52;;;101.00;;
25511;SDS011;13414;44.534;18.700;2022-12-22T05:53:03;156.27;;;99.20;;
25511;SDS011;13414;44.534;18.700;2022-12-22T05:55:31;161.20;;;100.30;;
25511;SDS011;13414;44.534;18.700;2022-12-22T05:57:59;163.05;;;100.65;;
25511;SDS011;13414;44.534;18.700;2022-12-22T06:00:26;174.55;;;106.72;;
25511;SDS011;13414;44.534;18.700;2022-12-22T06:02:54;184.30;;;110.22;;
25511;SDS011;13414;44.534;18.700;2022-12-22T06:05:24;185.02;;;108.80;;
25511;SDS011;13414;44.534;18.700;2022-12-22T06:07:51;178.55;;;107.32;;
25511;SDS011;13414;44.534;18.700;2022-12-22T06:10:18;193.65;;;112.55;;
25511;SDS011;13414;44.534;18.700;2022-12-22T06:12:46;195.32;;;117.13;;
25511;SDS011;13414;44.534;18.700;2022-12-22T06:15:13;204.73;;;116.15;;
25511;SDS011;13414;44.534;18.700;2022-12-22T06:17:41;219.45;;;120.50;;
25511;SDS011;13414;44.534;18.700;2022-12-22T06:20:09;241.57;;;131.40;;
25511;SDS011;13414;44.534;18.700;2022-12-22T06:22:39;221.98;;;124.60;;
25511;SDS011;13414;44.534;18.700;2022-12-22T06:25:07;199.82;;;117.78;;
25511;SDS011;13414;44.534;18.700;2022-12-22T06:27:34;185.85;;;108.63;;
25511;SDS011;13414;44.534;18.700;2022-12-22T06:30:02;180.50;;;107.78;;
25511;SDS011;13414;44.534;18.700;2022-12-22T06:32:30;197.68;;;118.28;;
25511;SDS011;13414;44.534;18.700;2022-12-22T06:34:57;231.60;;;134.38;;
25511;SDS011;13414;44.534;18.700;2022-12-22T06:37:25;211.32;;;125.40;;
25511;SDS011;13414;44.534;18.700;2022-12-22T06:39:54;193.30;;;114.20;;
25511;SDS011;13414;44.534;18.700;2022-12-22T06:42:21;187.60;;;114.22;;
25511;SDS011;13414;44.534;18.700;2022-12-22T06:45:07;186.68;;;114.45;;
25511;SDS011;13414;44.534;18.700;2022-12-22T06:47:35;211.30;;;124.38;;
25511;SDS011;13414;44.534;18.700;2022-12-22T06:50:02;208.73;;;122.72;;
25511;SDS011;13414;44.534;18.700;2022-12-22T06:52:31;197.77;;;116.50;;
25511;SDS011;13414;44.534;18.700;2022-12-22T06:54:59;197.73;;;118.75;;
25511;SDS011;13414;44.534;18.700;2022-12-22T06:57:27;226.95;;;132.55;;
25511;SDS011;13414;44.534;18.700;2022-12-22T06:59:54;222.55;;;130.25;;
25511;SDS011;13414;44.534;18.700;2022-12-22T07:02:21;217.70;;;126.60;;
25511;SDS011;13414;44.534;18.700;2022-12-22T07:04:49;227.68;;;130.00;;
25511;SDS011;13414;44.534;18.700;2022-12-22T07:07:16;244.57;;;141.15;;
25511;SDS011;13414;44.534;18.700;2022-12-22T07:09:43;272.45;;;151.77;;
25511;SDS011;13414;44.534;18.700;2022-12-22T07:12:12;278.13;;;152.77;;
25511;SDS011;13414;44.534;18.700;2022-12-22T07:14:40;272.30;;;155.65;;
25511;SDS011;13414;44.534;18.700;2022-12-22T07:17:07;286.88;;;164.02;;
25511;SDS011;13414;44.534;18.700;2022-12-22T07:19:34;273.08;;;154.45;;
25511;SDS011;13414;44.534;18.700;2022-12-22T07:22:02;265.08;;;151.35;;
25511;SDS011;13414;44.534;18.700;2022-12-22T07:24:29;227.30;;;137.70;;
25511;SDS011;13414;44.534;18.700;2022-12-22T07:26:57;245.15;;;143.88;;
25511;SDS011;13414;44.534;18.700;2022-12-22T07:29:26;246.20;;;143.43;;
25511;SDS011;13414;44.534;18.700;2022-12-22T07:31:53;246.77;;;142.20;;
25511;SDS011;13414;44.534;18.700;2022-12-22T07:34:21;252.00;;;145.35;;
25511;SDS011;13414;44.534;18.700;2022-12-22T07:36:48;238.98;;;140.75;;
25511;SDS011;13414;44.534;18.700;2022-12-22T07:39:16;234.15;;;135.40;;
25511;SDS011;13414;44.534;18.700;2022-12-22T07:41:43;234.48;;;131.73;;
25511;SDS011;13414;44.534;18.700;2022-12-22T07:44:29;232.07;;;128.88;;
25511;SDS011;13414;44.534;18.700;2022-12-22T07:46:56;224.63;;;131.10;;
25511;SDS011;13414;44.534;18.700;2022-12-22T07:49:24;213.20;;;127.78;;
25511;SDS011;13414;44.534;18.700;2022-12-22T07:52:08;202.20;;;121.28;;
25511;SDS011;13414;44.534;18.700;2022-12-22T07:54:36;203.52;;;122.85;;
25511;SDS011;13414;44.534;18.700;2022-12-22T07:57:03;205.90;;;123.13;;
25511;SDS011;13414;44.534;18.700;2022-12-22T07:59:32;205.27;;;121.35;;
25511;SDS011;13414;44.534;18.700;2022-12-22T08:01:59;197.00;;;120.22;;
25511;SDS011;13414;44.534;18.700;2022-12-22T08:04:27;201.95;;;123.13;;
25511;SDS011;13414;44.534;18.700;2022-12-22T08:06:54;202.48;;;122.32;;
25511;SDS011;13414;44.534;18.700;2022-12-22T08:09:21;202.30;;;121.55;;
25511;SDS011;13414;44.534;18.700;2022-12-22T08:11:49;205.68;;;126.53;;
25511;SDS011;13414;44.534;18.700;2022-12-22T08:14:16;216.02;;;125.75;;
25511;SDS011;13414;44.534;18.700;2022-12-22T08:16:45;216.35;;;129.32;;
25511;SDS011;13414;44.534;18.700;2022-12-22T08:19:12;207.82;;;124.70;;
25511;SDS011;13414;44.534;18.700;2022-12-22T08:21:39;221.82;;;128.68;;
25511;SDS011;13414;44.534;18.700;2022-12-22T08:24:07;227.40;;;132.05;;
25511;SDS011;13414;44.534;18.700;2022-12-22T08:26:35;227.00;;;132.27;;
25511;SDS011;13414;44.534;18.700;2022-12-22T08:29:07;231.35;;;132.52;;
25511;SDS011;13414;44.534;18.700;2022-12-22T08:31:36;214.63;;;126.18;;
25511;SDS011;13414;44.534;18.700;2022-12-22T08:34:07;179.18;;;108.13;;
25511;SDS011;13414;44.534;18.700;2022-12-22T08:36:37;159.77;;;98.88;;
25511;SDS011;13414;44.534;18.700;2022-12-22T08:39:06;168.48;;;95.07;;
25511;SDS011;13414;44.534;18.700;2022-12-22T08:41:33;159.80;;;94.25;;
25511;SDS011;13414;44.534;18.700;2022-12-22T08:44:17;163.27;;;98.00;;
25511;SDS011;13414;44.534;18.700;2022-12-22T08:46:45;158.80;;;99.03;;
25511;SDS011;13414;44.534;18.700;2022-12-22T08:49:14;167.88;;;101.88;;
25511;SDS011;13414;44.534;18.700;2022-12-22T08:51:42;170.77;;;104.75;;
25511;SDS011;13414;44.534;18.700;2022-12-22T08:54:10;165.88;;;103.40;;
25511;SDS011;13414;44.534;18.700;2022-12-22T08:56:37;180.82;;;107.65;;
25511;SDS011;13414;44.534;18.700;2022-12-22T08:59:05;179.48;;;109.93;;
25511;SDS011;13414;44.534;18.700;2022-12-22T09:01:34;178.60;;;112.43;;
25511;SDS011;13414;44.534;18.700;2022-12-22T09:04:02;203.10;;;122.10;;
25511;SDS011;13414;44.534;18.700;2022-12-22T09:06:32;194.55;;;121.15;;
25511;SDS011;13414;44.534;18.700;2022-12-22T09:09:01;199.90;;;121.85;;
25511;SDS011;13414;44.534;18.700;2022-12-22T09:11:30;196.70;;;121.15;;
25511;SDS011;13414;44.534;18.700;2022-12-22T09:13:58;200.55;;;122.93;;
25511;SDS011;13414;44.534;18.700;2022-12-22T09:16:27;200.77;;;123.13;;
25511;SDS011;13414;44.534;18.700;2022-12-22T09:18:55;206.38;;;123.00;;
25511;SDS011;13414;44.534;18.700;2022-12-22T09:21:23;210.50;;;120.63;;
25511;SDS011;13414;44.534;18.700;2022-12-22T09:23:52;203.38;;;122.95;;
25511;SDS011;13414;44.534;18.700;2022-12-22T09:26:21;198.70;;;122.68;;
25511;SDS011;13414;44.534;18.700;2022-12-22T09:28:49;189.20;;;115.18;;
25511;SDS011;13414;44.534;18.700;2022-12-22T09:31:17;190.63;;;118.60;;
25511;SDS011;13414;44.534;18.700;2022-12-22T09:33:45;200.07;;;119.75;;
25511;SDS011;13414;44.534;18.700;2022-12-22T09:36:22;198.38;;;121.80;;
25511;SDS011;13414;44.534;18.700;2022-12-22T09:38:53;195.77;;;120.82;;
25511;SDS011;13414;44.534;18.700;2022-12-22T09:41:22;184.90;;;115.75;;
25511;SDS011;13414;44.534;18.700;2022-12-22T09:43:56;198.30;;;118.70;;
25511;SDS011;13414;44.534;18.700;2022-12-22T09:46:24;196.27;;;120.00;;
25511;SDS011;13414;44.534;18.700;2022-12-22T09:48:54;179.10;;;109.70;;
25511;SDS011;13414;44.534;18.700;2022-12-22T09:51:22;172.43;;;106.22;;
25511;SDS011;13414;44.534;18.700;2022-12-22T09:53:54;151.63;;;94.20;;
25511;SDS011;13414;44.534;18.700;2022-12-22T09:56:24;188.63;;;115.32;;
25511;SDS011;13414;44.534;18.700;2022-12-22T09:58:53;159.52;;;95.93;;
25511;SDS011;13414;44.534;18.700;2022-12-22T10:01:26;157.38;;;95.93;;
25511;SDS011;13414;44.534;18.700;2022-12-22T10:04:03;160.98;;;95.35;;
25511;SDS011;13414;44.534;18.700;2022-12-22T10:06:38;143.48;;;91.45;;
25511;SDS011;13414;44.534;18.700;2022-12-22T10:09:15;132.70;;;81.27;;
25511;SDS011;13414;44.534;18.700;2022-12-22T10:11:49;130.02;;;80.40;;
25511;SDS011;13414;44.534;18.700;2022-12-22T10:14:17;145.18;;;89.38;;
25511;SDS011;13414;44.534;18.700;2022-12-22T10:16:45;135.38;;;86.95;;
25511;SDS011;13414;44.534;18.700;2022-12-22T10:19:12;151.43;;;90.95;;
25511;SDS011;13414;44.534;18.700;2022-12-22T10:21:40;141.15;;;93.18;;
25511;SDS011;13414;44.534;18.700;2022-12-22T10:24:16;163.10;;;96.35;;
25511;SDS011;13414;44.534;18.700;2022-12-22T10:26:52;166.45;;;102.00;;
25511;SDS011;13414;44.534;18.700;2022-12-22T10:29:22;169.77;;;103.65;;
25511;SDS011;13414;44.534;18.700;2022-12-22T10:31:57;174.50;;;105.20;;
25511;SDS011;13414;44.534;18.700;2022-12-22T10:34:25;176.63;;;104.88;;
25511;SDS011;13414;44.534;18.700;2022-12-22T10:36:54;169.95;;;106.93;;
25511;SDS011;13414;44.534;18.700;2022-12-22T10:39:26;156.82;;;98.22;;
25511;SDS011;13414;44.534;18.700;2022-12-22T10:41:58;151.60;;;93.75;;
25511;SDS011;13414;44.534;18.700;2022-12-22T10:44:27;149.23;;;93.28;;
25511;SDS011;13414;44.534;18.700;2022-12-22T10:46:59;149.75;;;92.20;;
25511;SDS011;13414;44.534;18.700;2022-12-22T10:49:37;138.05;;;87.90;;
25511;SDS011;13414;44.534;18.700;2022-12-22T10:52:09;156.10;;;91.38;;
25511;SDS011;13414;44.534;18.700;2022-12-22T10:54:41;151.65;;;98.85;;
25511;SDS011;13414;44.534;18.700;2022-12-22T10:59:55;131.60;;;84.78;;
25511;SDS011;13414;44.534;18.700;2022-12-22T11:02:28;151.38;;;91.05;;
25511;SDS011;13414;44.534;18.700;2022-12-22T11:05:05;131.25;;;80.20;;
25511;SDS011;13414;44.534;18.700;2022-12-22T11:07:34;131.70;;;76.53;;
25511;SDS011;13414;44.534;18.700;2022-12-22T11:10:10;112.82;;;69.38;;
25511;SDS011;13414;44.534;18.700;2022-12-22T11:12:48;136.75;;;80.65;;
25511;SDS011;13414;44.534;18.700;2022-12-22T11:15:41;120.45;;;73.70;;
25511;SDS011;13414;44.534;18.700;2022-12-22T11:18:20;118.70;;;74.53;;
25511;SDS011;13414;44.534;18.700;2022-12-22T11:21:12;118.72;;;66.75;;
25511;SDS011;13414;44.534;18.700;2022-12-22T11:23:47;110.57;;;66.03;;
25511;SDS011;13414;44.534;18.700;2022-12-22T11:26:27;108.53;;;64.40;;
25511;SDS011;13414;44.534;18.700;2022-12-22T11:29:14;105.82;;;62.22;;
25511;SDS011;13414;44.534;18.700;2022-12-22T11:31:55;106.85;;;60.28;;
25511;SDS011;13414;44.534;18.700;2022-12-22T11:34:37;88.65;;;56.58;;
25511;SDS011;13414;44.534;18.700;2022-12-22T11:37:25;90.10;;;55.90;;
25511;SDS011;13414;44.534;18.700;2022-12-22T11:40:03;87.75;;;54.60;;
25511;SDS011;13414;44.534;18.700;2022-12-22T11:42:50;75.55;;;49.22;;
25511;SDS011;13414;44.534;18.700;2022-12-22T11:45:35;77.00;;;48.90;;
25511;SDS011;13414;44.534;18.700;2022-12-22T11:48:26;75.95;;;46.35;;
25511;SDS011;13414;44.534;18.700;2022-12-22T11:51:15;71.05;;;46.72;;
25511;SDS011;13414;44.534;18.700;2022-12-22T11:54:00;81.40;;;47.70;;
25511;SDS011;13414;44.534;18.700;2022-12-22T11:56:40;83.78;;;50.22;;
25511;SDS011;13414;44.534;18.700;2022-12-22T11:59:26;76.47;;;48.92;;
25511;SDS011;13414;44.534;18.700;2022-12-22T12:02:16;81.60;;;50.50;;
25511;SDS011;13414;44.534;18.700;2022-12-22T12:05:09;88.40;;;50.58;;
25511;SDS011;13414;44.534;18.700;2022-12-22T12:07:53;99.88;;;57.25;;
25511;SDS011;13414;44.534;18.700;2022-12-22T12:12:58;93.60;;;57.35;;
25511;SDS011;13414;44.534;18.700;2022-12-22T12:15:35;99.20;;;59.80;;
25511;SDS011;13414;44.534;18.700;2022-12-22T12:21:06;97.00;;;53.97;;
25511;SDS011;13414;44.534;18.700;2022-12-22T12:23:53;138.88;;;89.57;;
25511;SDS011;13414;44.534;18.700;2022-12-22T12:26:36;131.48;;;79.00;;
25511;SDS011;13414;44.534;18.700;2022-12-22T12:29:16;114.38;;;70.90;;
25511;SDS011;13414;44.534;18.700;2022-12-22T12:31:47;129.27;;;79.45;;
25511;SDS011;13414;44.534;18.700;2022-12-22T12:34:19;114.05;;;68.53;;
25511;SDS011;13414;44.534;18.700;2022-12-22T12:36:49;123.82;;;72.32;;
25511;SDS011;13414;44.534;18.700;2022-12-22T12:39:23;119.10;;;73.32;;
25511;SDS011;13414;44.534;18.700;2022-12-22T12:41:58;128.55;;;78.70;;
25511;SDS011;13414;44.534;18.700;2022-12-22T12:44:35;141.40;;;83.75;;
25511;SDS011;13414;44.534;18.700;2022-12-22T12:47:19;128.27;;;80.93;;
25511;SDS011;13414;44.534;18.700;2022-12-22T12:55:50;135.77;;;81.50;;
25511;SDS011;13414;44.534;18.700;2022-12-22T13:10:23;177.20;;;110.82;;
25511;SDS011;13414;44.534;18.700;2022-12-22T13:12:52;180.98;;;114.72;;
25511;SDS011;13414;44.534;18.700;2022-12-22T13:15:29;192.18;;;122.25;;
25511;SDS011;13414;44.534;18.700;2022-12-22T13:17:57;186.38;;;116.88;;
25511;SDS011;13414;44.534;18.700;2022-12-22T13:20:26;160.82;;;102.15;;
25511;SDS011;13414;44.534;18.700;2022-12-22T13:22:57;154.90;;;97.63;;
25511;SDS011;13414;44.534;18.700;2022-12-22T13:25:29;156.50;;;89.68;;
25511;SDS011;13414;44.534;18.700;2022-12-22T13:28:10;138.32;;;87.20;;
25511;SDS011;13414;44.534;18.700;2022-12-22T13:30:44;142.90;;;86.50;;
25511;SDS011;13414;44.534;18.700;2022-12-22T13:33:14;148.25;;;86.53;;
25511;SDS011;13414;44.534;18.700;2022-12-22T13:35:44;145.70;;;85.60;;
25511;SDS011;13414;44.534;18.700;2022-12-22T13:38:29;137.07;;;82.53;;
25511;SDS011;13414;44.534;18.700;2022-12-22T13:40:58;135.20;;;79.68;;
25511;SDS011;13414;44.534;18.700;2022-12-22T13:43:28;135.07;;;80.60;;
25511;SDS011;13414;44.534;18.700;2022-12-22T13:45:57;134.95;;;82.72;;
25511;SDS011;13414;44.534;18.700;2022-12-22T13:48:29;138.35;;;89.13;;
25511;SDS011;13414;44.534;18.700;2022-12-22T13:51:04;142.50;;;87.90;;
25511;SDS011;13414;44.534;18.700;2022-12-22T13:53:34;139.20;;;88.28;;
25511;SDS011;13414;44.534;18.700;2022-12-22T13:56:06;148.27;;;91.63;;
25511;SDS011;13414;44.534;18.700;2022-12-22T14:01:14;167.02;;;100.03;;
25511;SDS011;13414;44.534;18.700;2022-12-22T14:03:47;155.85;;;99.88;;
25511;SDS011;13414;44.534;18.700;2022-12-22T14:06:19;180.40;;;113.32;;
25511;SDS011;13414;44.534;18.700;2022-12-22T14:08:52;180.45;;;114.15;;
25511;SDS011;13414;44.534;18.700;2022-12-22T14:11:24;192.43;;;115.13;;
25511;SDS011;13414;44.534;18.700;2022-12-22T14:13:52;188.48;;;116.45;;
25511;SDS011;13414;44.534;18.700;2022-12-22T14:16:19;206.52;;;119.45;;
25511;SDS011;13414;44.534;18.700;2022-12-22T14:18:46;207.57;;;126.18;;
25511;SDS011;13414;44.534;18.700;2022-12-22T14:21:16;222.18;;;130.10;;
25511;SDS011;13414;44.534;18.700;2022-12-22T14:23:43;239.82;;;140.75;;
25511;SDS011;13414;44.534;18.700;2022-12-22T14:26:15;247.70;;;144.93;;
25511;SDS011;13414;44.534;18.700;2022-12-22T14:28:49;267.13;;;153.70;;
25511;SDS011;13414;44.534;18.700;2022-12-22T14:31:19;297.63;;;167.05;;
25511;SDS011;13414;44.534;18.700;2022-12-22T14:33:50;307.92;;;176.50;;
25511;SDS011;13414;44.534;18.700;2022-12-22T14:36:20;378.98;;;218.75;;
25511;SDS011;13414;44.534;18.700;2022-12-22T14:38:50;388.52;;;225.55;;
25511;SDS011;13414;44.534;18.700;2022-12-22T14:41:20;374.90;;;221.90;;
25511;SDS011;13414;44.534;18.700;2022-12-22T14:44:13;308.85;;;170.60;;
25511;SDS011;13414;44.534;18.700;2022-12-22T14:47:02;262.48;;;149.25;;
25511;SDS011;13414;44.534;18.700;2022-12-22T14:49:34;257.80;;;144.25;;
25511;SDS011;13414;44.534;18.700;2022-12-22T14:52:14;262.70;;;154.23;;
25511;SDS011;13414;44.534;18.700;2022-12-22T14:54:45;259.85;;;155.20;;
25511;SDS011;13414;44.534;18.700;2022-12-22T14:57:14;258.27;;;153.63;;
25511;SDS011;13414;44.534;18.700;2022-12-22T14:59:58;278.83;;;165.82;;
25511;SDS011;13414;44.534;18.700;2022-12-22T15:02:28;292.85;;;177.63;;